createdAt,value
2019-02-03T10:02:35.506Z,53.26
2019-02-03T10:17:38.242Z,58.65
2019-02-03T10:32:40.832Z,58.46
2019-02-03T10:47:43.677Z,56.24
2019-02-03T11:02:46.360Z,51.55
2019-02-03T11:17:49.014Z,53.96
2019-02-03T11:33:04.584Z,56.81
2019-02-03T11:47:58.702Z,57.42
2019-02-03T12:03:02.411Z,62.39
2019-02-03T12:18:06.365Z,59.35
2019-02-03T12:33:09.223Z,55.66
2019-02-03T12:48:12.648Z,57.07
2019-02-03T13:03:16.124Z,59.19
2019-02-03T13:18:19.158Z,57.04
2019-02-03T13:33:22.087Z,58.52
2019-02-03T13:48:24.779Z,55.29
2019-02-03T14:03:27.376Z,57.77
2019-02-03T14:18:30.768Z,60.52
2019-02-03T14:33:33.721Z,67.20
2019-02-03T14:48:37.377Z,69.94
2019-02-03T15:03:40.799Z,72.58
2019-02-03T15:18:45.504Z,75.24
2019-02-03T15:33:48.103Z,75.43
2019-02-03T15:48:51.190Z,78.93
2019-02-03T16:03:54.284Z,77.83
2019-02-03T16:18:56.851Z,81.33
2019-02-03T16:33:59.859Z,79.65
2019-02-03T16:49:04.439Z,77.27
2019-02-03T17:04:07.119Z,83.29
2019-02-03T17:19:09.816Z,85.26
2019-02-03T17:34:12.427Z,84.77
2019-02-03T17:49:16.758Z,89.32
2019-02-03T18:04:20.495Z,90.14
2019-02-03T18:19:24.012Z,96.64
2019-02-03T18:34:26.922Z,95.95
2019-02-03T18:49:30.482Z,98.83
2019-02-03T19:04:33.102Z,99.12
2019-02-03T19:19:36.154Z,98.83
2019-02-03T19:34:38.738Z,97.89
2019-02-03T19:49:46.333Z,99.78
2019-02-03T20:04:46.087Z,99.89
2019-02-03T20:19:48.938Z,100.00
2019-02-03T20:34:51.638Z,100.00
2019-02-03T20:49:54.243Z,99.35
2019-02-03T21:04:59.255Z,98.35
2019-02-03T21:20:01.925Z,100.00
2019-02-03T21:35:07.677Z,100.00
2019-02-03T21:50:13.925Z,100.00
2019-02-03T22:05:16.742Z,100.00
2019-02-03T22:20:21.410Z,100.00
2019-02-03T22:35:24.171Z,100.00
2019-02-03T22:50:29.830Z,100.00
2019-02-03T23:05:32.856Z,100.00
2019-02-03T23:20:35.451Z,100.00
2019-02-03T23:35:38.130Z,100.00
2019-02-03T23:50:40.744Z,100.00
